Time;durP1;ratioP1;P1;durP2;ratioP2;P2;SDS_P1;SDS_P2;PMS_P1;PMS_P2;Temp;Humidity;BMP_temperature;BMP_pressure;BME280_temperature;BME280_humidity;BME280_pressure;Samples;Min_cycle;Max_cycle;Signal;HPM_P1;HPM_P2
2024/01/23 00:01:06;;;;;;;17.53;3.60;;;9.50;99.90;;;;;;5057073;28;21001;-59
2024/01/23 00:03:33;;;;;;;17.57;4.00;;;9.50;99.90;;;;;;5057029;28;20477;-58
2024/01/23 00:06:00;;;;;;;17.67;5.60;;;9.50;99.90;;;;;;5057637;28;20461;-58
2024/01/23 00:08:26;;;;;;;16.60;3.33;;;9.50;99.90;;;;;;5056967;28;20438;-58
2024/01/23 00:10:53;;;;;;;18.13;4.20;;;9.50;99.90;;;;;;5055651;28;20468;-59
2024/01/23 00:13:21;;;;;;;16.13;4.43;;;9.50;99.90;;;;;;5055788;28;20442;-59
2024/01/23 00:15:48;;;;;;;17.77;4.33;;;9.50;99.90;;;;;;5055875;28;20456;-59
2024/01/23 00:18:14;;;;;;;22.70;4.10;;;9.50;99.90;;;;;;5055492;28;20437;-60
2024/01/23 00:20:41;;;;;;;23.73;3.07;;;9.50;99.90;;;;;;5055569;28;20456;-60
2024/01/23 00:23:08;;;;;;;24.70;5.80;;;9.50;99.90;;;;;;5055435;28;20508;-60
2024/01/23 00:25:35;;;;;;;17.43;3.93;;;9.40;99.90;;;;;;5055413;28;20481;-60
2024/01/23 00:28:03;;;;;;;18.70;4.03;;;9.30;99.90;;;;;;5055359;28;20485;-60
2024/01/23 00:30:31;;;;;;;24.17;4.40;;;9.30;99.90;;;;;;5055334;28;20481;-60
2024/01/23 00:32:58;;;;;;;33.27;4.57;;;9.30;99.90;;;;;;5055265;28;20458;-60
2024/01/23 00:35:24;;;;;;;22.27;4.50;;;9.30;99.90;;;;;;5055232;28;20858;-59
2024/01/23 00:37:51;;;;;;;21.90;4.07;;;9.30;99.90;;;;;;5055185;28;20449;-59
2024/01/23 00:40:17;;;;;;;20.20;3.80;;;9.20;99.90;;;;;;5055081;28;20453;-59
2024/01/23 00:42:44;;;;;;;22.00;3.93;;;9.20;99.90;;;;;;5055011;28;20462;-59
2024/01/23 00:45:11;;;;;;;21.80;3.70;;;9.20;99.90;;;;;;5054215;28;20477;-59
2024/01/23 00:47:39;;;;;;;16.70;3.20;;;9.20;99.90;;;;;;5055054;28;20445;-59
2024/01/23 00:50:06;;;;;;;18.40;3.53;;;9.20;99.90;;;;;;5055045;28;20449;-59
2024/01/23 00:52:33;;;;;;;15.23;4.00;;;9.20;99.90;;;;;;5054514;28;20492;-59
2024/01/23 00:55:03;;;;;;;19.93;4.00;;;9.20;99.90;;;;;;5054876;28;20442;-58
2024/01/23 00:57:30;;;;;;;24.10;4.13;;;9.30;99.90;;;;;;5054123;28;20450;-58
2024/01/23 00:59:57;;;;;;;27.43;5.00;;;9.20;99.90;;;;;;5054338;28;20454;-58
2024/01/23 01:02:23;;;;;;;18.30;3.80;;;9.20;99.90;;;;;;5054530;28;20461;-58
2024/01/23 01:04:51;;;;;;;17.40;3.20;;;9.20;99.90;;;;;;5054495;28;20492;-58
2024/01/23 01:07:18;;;;;;;17.47;3.27;;;9.20;99.90;;;;;;5054556;28;20446;-58
2024/01/23 01:09:45;;;;;;;21.17;4.83;;;9.20;99.90;;;;;;5054404;28;20932;-58
2024/01/23 01:12:11;;;;;;;19.17;3.93;;;9.20;99.90;;;;;;5054550;28;20865;-58
2024/01/23 01:14:38;;;;;;;17.53;3.33;;;9.20;99.90;;;;;;5054238;28;20959;-58
2024/01/23 01:17:05;;;;;;;17.10;3.47;;;9.20;99.90;;;;;;5054660;28;20445;-58
2024/01/23 01:19:32;;;;;;;18.57;3.73;;;9.30;99.90;;;;;;5054353;28;20468;-58
2024/01/23 01:22:00;;;;;;;15.50;3.60;;;9.30;99.90;;;;;;5054316;28;20465;-58
2024/01/23 01:24:27;;;;;;;17.57;4.33;;;9.30;99.90;;;;;;5054311;28;20481;-58
2024/01/23 01:26:54;;;;;;;26.00;3.67;;;9.30;99.90;;;;;;5054331;28;20450;-58
2024/01/23 01:29:20;;;;;;;29.33;4.40;;;9.30;99.90;;;;;;5054343;28;20437;-58
2024/01/23 01:31:47;;;;;;;20.10;3.63;;;9.20;99.90;;;;;;5054306;28;20470;-58
2024/01/23 01:34:14;;;;;;;12.13;3.77;;;9.20;99.90;;;;;;5054421;28;20442;-59
2024/01/23 01:36:40;;;;;;;19.43;3.20;;;9.30;99.90;;;;;;5054381;28;20528;-59
2024/01/23 01:39:12;;;;;;;19.40;4.60;;;9.30;99.90;;;;;;5054325;28;20468;-58
2024/01/23 01:41:38;;;;;;;17.37;5.03;;;9.30;99.90;;;;;;5054301;28;20528;-58
2024/01/23 01:44:05;;;;;;;13.50;3.80;;;9.20;99.90;;;;;;5054228;28;20478;-58
2024/01/23 01:46:32;;;;;;;12.53;3.03;;;9.20;99.90;;;;;;5054035;28;20940;-58
2024/01/23 01:48:59;;;;;;;17.27;3.13;;;9.20;99.90;;;;;;5054453;28;20461;-58
2024/01/23 01:51:28;;;;;;;15.43;3.27;;;9.20;99.90;;;;;;5054508;28;20466;-58
2024/01/23 01:53:54;;;;;;;12.60;2.93;;;9.30;99.90;;;;;;5054427;28;20441;-58
2024/01/23 01:56:24;;;;;;;13.60;4.47;;;9.20;99.40;;;;;;5055219;28;20445;-58
2024/01/23 01:58:51;;;;;;;11.43;3.60;;;9.20;99.30;;;;;;5054228;28;20452;-58
2024/01/23 02:01:19;;;;;;;9.23;3.03;;;9.20;99.60;;;;;;5053621;28;20465;-58
2024/01/23 02:03:46;;;;;;;16.87;4.77;;;9.20;99.60;;;;;;5053605;28;20450;-58
2024/01/23 02:06:13;;;;;;;14.80;3.80;;;9.20;99.60;;;;;;5053340;28;20493;-58
2024/01/23 02:08:41;;;;;;;10.10;3.30;;;9.20;99.70;;;;;;5053364;28;20442;-58
2024/01/23 02:11:07;;;;;;;10.43;3.27;;;9.20;99.60;;;;;;5053458;28;20456;-58
2024/01/23 02:13:36;;;;;;;7.87;3.17;;;9.20;99.70;;;;;;5053498;28;20449;-58
2024/01/23 02:16:03;;;;;;;15.43;3.53;;;9.20;99.50;;;;;;5053431;28;20539;-58
2024/01/23 02:18:30;;;;;;;10.03;2.50;;;9.20;99.20;;;;;;5053224;28;20878;-58
2024/01/23 02:20:56;;;;;;;13.73;2.63;;;9.20;99.50;;;;;;5053324;28;20454;-58
2024/01/23 02:23:28;;;;;;;14.00;2.70;;;9.10;99.20;;;;;;5053387;28;20453;-58
2024/01/23 02:25:55;;;;;;;9.23;3.00;;;9.10;99.60;;;;;;5053254;28;20470;-58
2024/01/23 02:28:22;;;;;;;11.80;2.30;;;9.10;99.90;;;;;;5053288;28;20453;-58
2024/01/23 02:30:49;;;;;;;14.17;3.20;;;9.10;99.90;;;;;;5053066;28;20450;-58
2024/01/23 02:33:16;;;;;;;14.43;3.30;;;9.10;99.90;;;;;;5053169;28;20454;-58
2024/01/23 02:35:42;;;;;;;7.00;2.40;;;9.10;99.90;;;;;;5052879;28;20796;-58
2024/01/23 02:38:09;;;;;;;14.13;2.97;;;9.00;99.90;;;;;;5053232;28;20503;-58
2024/01/23 02:40:37;;;;;;;15.43;3.77;;;9.00;99.90;;;;;;5053151;28;20823;-58
2024/01/23 02:43:04;;;;;;;16.60;3.37;;;9.00;99.90;;;;;;5053105;28;20457;-58
2024/01/23 02:45:31;;;;;;;16.23;3.20;;;9.00;99.90;;;;;;5052976;28;20576;-58
2024/01/23 02:47:57;;;;;;;18.63;3.93;;;9.00;99.90;;;;;;5053055;28;20449;-58
2024/01/23 02:50:26;;;;;;;16.10;3.20;;;8.90;99.90;;;;;;5053131;28;20506;-58
2024/01/23 02:52:53;;;;;;;18.13;3.10;;;8.90;99.90;;;;;;5052739;28;20477;-58
2024/01/23 02:55:19;;;;;;;9.03;4.20;;;8.90;99.90;;;;;;5053000;28;20442;-58
2024/01/23 02:57:48;;;;;;;15.10;2.73;;;8.90;99.90;;;;;;5053844;28;20453;-58
2024/01/23 03:00:15;;;;;;;10.10;3.10;;;8.80;99.90;;;;;;5052897;28;20453;-58
2024/01/23 03:02:41;;;;;;;24.83;3.00;;;8.80;99.90;;;;;;5052833;28;20468;-58
2024/01/23 03:05:09;;;;;;;12.23;2.87;;;8.80;99.90;;;;;;5052855;28;20481;-58
2024/01/23 03:07:35;;;;;;;15.90;3.27;;;8.70;99.90;;;;;;5053144;28;20957;-58
2024/01/23 03:10:03;;;;;;;12.17;3.30;;;8.70;99.90;;;;;;5056895;28;20445;-58
2024/01/23 03:12:30;;;;;;;8.40;2.50;;;8.70;99.90;;;;;;5056715;28;20465;-58
2024/01/23 03:14:58;;;;;;;14.60;3.30;;;8.60;99.90;;;;;;5056463;28;20932;-58
2024/01/23 03:17:25;;;;;;;9.63;2.57;;;8.60;99.90;;;;;;5057130;28;20453;-58
2024/01/23 03:19:52;;;;;;;11.40;2.70;;;8.60;99.90;;;;;;5056729;28;20457;-58
2024/01/23 03:22:19;;;;;;;12.40;3.43;;;8.50;99.90;;;;;;5056559;28;20466;-58
2024/01/23 03:24:45;;;;;;;19.10;2.97;;;8.50;99.90;;;;;;5057073;28;20477;-58
2024/01/23 03:27:12;;;;;;;19.33;3.37;;;8.40;99.90;;;;;;5056887;28;20495;-58
2024/01/23 03:29:41;;;;;;;13.67;2.30;;;8.40;99.90;;;;;;5056641;28;20441;-58
2024/01/23 03:32:10;;;;;;;13.53;2.97;;;8.40;99.90;;;;;;5056471;28;20461;-58
2024/01/23 03:34:37;;;;;;;16.13;3.17;;;8.30;99.90;;;;;;5056323;28;20445;-58
2024/01/23 03:37:05;;;;;;;15.83;3.40;;;8.30;99.90;;;;;;5056075;28;20437;-58
2024/01/23 03:39:32;;;;;;;16.43;3.27;;;8.20;99.90;;;;;;5056261;28;20441;-58
2024/01/23 03:41:59;;;;;;;11.40;2.87;;;8.20;99.90;;;;;;5056158;28;20461;-58
2024/01/23 03:44:25;;;;;;;14.03;3.27;;;8.20;99.90;;;;;;5055811;28;20942;-58
2024/01/23 03:46:52;;;;;;;12.83;3.60;;;8.20;99.90;;;;;;5055817;28;20962;-58
2024/01/23 03:49:21;;;;;;;19.10;3.50;;;8.20;99.90;;;;;;5056146;28;20445;-58
2024/01/23 03:51:49;;;;;;;15.60;3.60;;;8.10;99.90;;;;;;5055630;28;20481;-58
2024/01/23 03:54:15;;;;;;;10.10;3.00;;;8.10;99.90;;;;;;5056053;28;20422;-58
2024/01/23 03:56:42;;;;;;;16.93;2.73;;;8.10;99.90;;;;;;5056010;28;20441;-58
2024/01/23 03:59:09;;;;;;;16.43;4.53;;;8.10;99.90;;;;;;5055702;28;20958;-58
2024/01/23 04:01:36;;;;;;;17.73;3.80;;;8.10;99.90;;;;;;5055817;28;20469;-58
2024/01/23 04:04:03;;;;;;;13.53;3.43;;;8.10;99.90;;;;;;5055506;28;20441;-58
2024/01/23 04:06:31;;;;;;;13.97;2.53;;;8.00;99.90;;;;;;5055707;28;20521;-58
2024/01/23 04:08:59;;;;;;;11.27;3.23;;;8.10;99.90;;;;;;5055362;28;20967;-58
2024/01/23 04:11:26;;;;;;;15.73;3.20;;;8.00;99.90;;;;;;5055212;28;20990;-58
2024/01/23 04:13:53;;;;;;;24.93;3.67;;;8.00;99.90;;;;;;5055701;28;20445;-58
2024/01/23 04:16:20;;;;;;;18.50;2.90;;;8.00;99.90;;;;;;5055612;28;20437;-58
2024/01/23 04:18:46;;;;;;;15.57;2.77;;;8.00;99.90;;;;;;5054997;28;20446;-58
2024/01/23 04:21:15;;;;;;;8.40;2.77;;;8.00;99.90;;;;;;5054900;28;20466;-58
2024/01/23 04:23:43;;;;;;;16.13;4.90;;;7.90;99.90;;;;;;5055554;28;20481;-58
2024/01/23 04:26:10;;;;;;;19.67;3.77;;;8.00;99.90;;;;;;5055412;28;20481;-58
2024/01/23 04:28:37;;;;;;;15.83;3.07;;;7.90;99.90;;;;;;5055306;28;20446;-58
2024/01/23 04:31:04;;;;;;;16.93;3.80;;;7.90;99.90;;;;;;5055265;28;20441;-58
2024/01/23 04:33:31;;;;;;;17.40;3.83;;;7.90;99.90;;;;;;5054938;28;20454;-58
2024/01/23 04:35:58;;;;;;;14.83;3.47;;;7.90;99.90;;;;;;5055303;28;20815;-58
2024/01/23 04:38:24;;;;;;;17.10;4.30;;;7.90;99.90;;;;;;5055753;28;20446;-58
2024/01/23 04:40:52;;;;;;;23.10;3.43;;;7.80;99.90;;;;;;5055200;28;20536;-59
2024/01/23 04:43:19;;;;;;;23.17;3.33;;;7.80;99.90;;;;;;5056018;28;20796;-58
2024/01/23 04:45:46;;;;;;;20.77;3.37;;;7.80;99.90;;;;;;5055034;28;20489;-58
2024/01/23 04:48:12;;;;;;;19.50;3.20;;;7.80;99.90;;;;;;5055213;28;20445;-58
2024/01/23 04:50:39;;;;;;;17.13;3.70;;;7.80;99.90;;;;;;5054590;28;20951;-58
2024/01/23 04:53:06;;;;;;;15.50;2.30;;;7.80;99.90;;;;;;5054534;28;20485;-58
2024/01/23 04:55:33;;;;;;;14.13;4.50;;;7.80;99.90;;;;;;5055012;28;20448;-58
2024/01/23 04:58:01;;;;;;;24.00;3.50;;;7.80;99.90;;;;;;5054808;28;20441;-58
2024/01/23 05:00:27;;;;;;;16.93;4.23;;;7.70;99.90;;;;;;5054921;28;20529;-58
2024/01/23 05:02:54;;;;;;;21.13;3.53;;;7.70;99.90;;;;;;5054701;28;20461;-58
2024/01/23 05:05:21;;;;;;;17.13;3.50;;;7.70;99.90;;;;;;5054657;28;20508;-58
2024/01/23 05:07:47;;;;;;;19.20;3.63;;;7.70;99.90;;;;;;5054704;28;20441;-58
2024/01/23 05:10:14;;;;;;;21.33;4.40;;;7.70;99.90;;;;;;5054276;28;20955;-58
2024/01/23 05:12:41;;;;;;;26.87;3.83;;;7.70;99.90;;;;;;5054498;28;20466;-58
2024/01/23 05:15:09;;;;;;;11.77;2.93;;;7.70;99.90;;;;;;5054534;28;20445;-58
2024/01/23 05:17:37;;;;;;;24.30;4.00;;;7.60;99.90;;;;;;5054288;28;20963;-58
2024/01/23 05:20:05;;;;;;;12.13;3.37;;;7.60;99.90;;;;;;5054141;28;20456;-58
2024/01/23 05:22:32;;;;;;;16.93;4.40;;;7.60;99.90;;;;;;5053964;28;20887;-58
2024/01/23 05:24:59;;;;;;;17.10;3.60;;;7.60;99.90;;;;;;5054449;28;20442;-58
2024/01/23 05:27:26;;;;;;;16.57;3.63;;;7.60;99.90;;;;;;5053994;28;20442;-58
2024/01/23 05:29:53;;;;;;;22.07;3.57;;;7.60;99.90;;;;;;5053921;28;20939;-58
2024/01/23 05:32:21;;;;;;;22.93;4.57;;;7.50;99.90;;;;;;5053721;28;20880;-58
2024/01/23 05:34:47;;;;;;;14.40;3.50;;;7.50;99.90;;;;;;5054163;28;20959;-58
2024/01/23 05:37:14;;;;;;;23.63;3.70;;;7.50;99.90;;;;;;5054153;28;20461;-58
2024/01/23 05:39:41;;;;;;;23.30;4.50;;;7.50;99.90;;;;;;5054224;28;20445;-58
2024/01/23 05:42:08;;;;;;;10.93;3.00;;;7.50;99.90;;;;;;5053990;28;20458;-58
2024/01/23 05:44:35;;;;;;;15.50;3.20;;;7.50;99.90;;;;;;5054072;28;20446;-58
2024/01/23 05:47:02;;;;;;;15.40;3.70;;;7.40;99.90;;;;;;5054027;28;20485;-58
2024/01/23 05:49:31;;;;;;;13.77;3.53;;;7.40;99.90;;;;;;5053620;28;20944;-58
2024/01/23 05:51:58;;;;;;;14.90;4.03;;;7.30;99.90;;;;;;5053537;28;20563;-58
2024/01/23 05:54:24;;;;;;;10.93;3.13;;;7.40;99.90;;;;;;5053873;28;20452;-58
2024/01/23 05:56:51;;;;;;;19.70;3.80;;;7.30;99.90;;;;;;5054650;28;20787;-58
2024/01/23 05:59:18;;;;;;;20.13;3.30;;;7.40;99.90;;;;;;5053721;28;20450;-58
2024/01/23 06:01:45;;;;;;;12.97;3.50;;;7.40;99.90;;;;;;5053638;28;20465;-58
2024/01/23 06:04:11;;;;;;;11.73;2.67;;;7.40;99.90;;;;;;5053568;28;20453;-58
2024/01/23 06:06:43;;;;;;;22.67;4.63;;;7.30;99.90;;;;;;5054451;28;20485;-58
2024/01/23 06:09:10;;;;;;;15.87;3.30;;;7.30;99.90;;;;;;5053519;28;20943;-58
2024/01/23 06:11:37;;;;;;;20.07;3.70;;;7.20;99.90;;;;;;5053632;28;20466;-58
2024/01/23 06:14:05;;;;;;;12.50;3.00;;;7.20;99.90;;;;;;5053659;28;20467;-58
2024/01/23 06:16:31;;;;;;;10.90;3.07;;;7.30;99.90;;;;;;5053658;28;20441;-58
2024/01/23 06:18:58;;;;;;;15.00;2.93;;;7.30;99.90;;;;;;5053343;28;20943;-58
2024/01/23 06:21:25;;;;;;;16.47;3.93;;;7.20;99.90;;;;;;5053539;28;20519;-58
2024/01/23 06:23:53;;;;;;;12.80;3.30;;;7.20;99.90;;;;;;5053566;28;20441;-58
2024/01/23 06:26:20;;;;;;;18.97;3.50;;;7.20;99.90;;;;;;5053423;28;20481;-58
2024/01/23 06:28:46;;;;;;;14.70;3.40;;;7.20;99.90;;;;;;5053443;28;20861;-58
2024/01/23 06:31:13;;;;;;;11.23;3.30;;;7.20;99.90;;;;;;5052884;28;20983;-58
2024/01/23 06:33:40;;;;;;;20.30;3.60;;;7.20;99.90;;;;;;5053503;28;20536;-58
2024/01/23 06:36:07;;;;;;;19.93;3.50;;;7.20;99.90;;;;;;5053535;28;20445;-58
2024/01/23 06:38:34;;;;;;;12.97;3.30;;;7.20;99.90;;;;;;5053397;28;20519;-58
2024/01/23 06:41:02;;;;;;;11.73;2.83;;;7.10;99.90;;;;;;5053441;28;20879;-58
2024/01/23 06:43:29;;;;;;;10.73;3.10;;;7.00;99.90;;;;;;5055642;28;20441;-58
2024/01/23 06:45:56;;;;;;;14.07;3.43;;;7.00;99.90;;;;;;5057205;28;20995;-58
2024/01/23 06:48:23;;;;;;;18.07;3.20;;;7.00;99.90;;;;;;5057379;28;20485;-58
2024/01/23 06:50:50;;;;;;;15.00;2.67;;;6.90;99.90;;;;;;5057343;28;20449;-58
2024/01/23 06:53:16;;;;;;;19.50;3.27;;;7.00;99.90;;;;;;5056853;28;20468;-58
2024/01/23 06:55:43;;;;;;;12.80;2.93;;;6.90;99.90;;;;;;5057035;28;20441;-58
2024/01/23 06:58:11;;;;;;;14.57;3.03;;;6.90;99.90;;;;;;5057387;28;20445;-58
2024/01/23 07:00:38;;;;;;;23.63;3.87;;;6.90;99.90;;;;;;5056958;28;20935;-58
2024/01/23 07:03:05;;;;;;;15.13;2.73;;;6.90;99.90;;;;;;5057041;28;20546;-58
2024/01/23 07:05:32;;;;;;;13.73;2.77;;;6.80;99.90;;;;;;5057756;28;20923;-58
2024/01/23 07:07:59;;;;;;;11.87;2.73;;;6.80;99.90;;;;;;5057065;28;20445;-58
2024/01/23 07:10:25;;;;;;;16.20;3.57;;;6.90;99.90;;;;;;5057145;28;20499;-58
2024/01/23 07:12:52;;;;;;;18.50;2.93;;;6.90;99.90;;;;;;5057042;28;20564;-58
2024/01/23 07:15:20;;;;;;;25.37;4.30;;;6.90;99.90;;;;;;5057181;28;20446;-58
2024/01/23 07:17:47;;;;;;;17.73;4.50;;;6.90;99.90;;;;;;5056935;28;20947;-58
2024/01/23 07:20:14;;;;;;;20.63;3.80;;;6.90;99.90;;;;;;5057463;28;20532;-58
2024/01/23 07:22:41;;;;;;;15.37;3.33;;;7.00;99.90;;;;;;5056517;28;20469;-58
2024/01/23 07:25:09;;;;;;;18.40;3.50;;;6.90;99.90;;;;;;5057684;28;20448;-58
2024/01/23 07:27:36;;;;;;;12.93;3.03;;;6.90;99.90;;;;;;5056978;28;21071;-58
2024/01/23 07:30:03;;;;;;;24.87;3.93;;;6.80;99.90;;;;;;5057662;28;20887;-58
2024/01/23 07:32:31;;;;;;;19.83;3.10;;;6.80;99.90;;;;;;5058141;28;20468;-58
2024/01/23 07:34:57;;;;;;;12.70;3.50;;;6.90;99.90;;;;;;5059088;28;20449;-58
2024/01/23 07:37:24;;;;;;;15.63;3.30;;;6.90;99.90;;;;;;5058960;28;20495;-58
2024/01/23 07:39:51;;;;;;;14.73;3.20;;;6.80;99.90;;;;;;5058557;28;20453;-58
2024/01/23 07:42:18;;;;;;;14.17;3.33;;;6.90;99.90;;;;;;5058576;28;20473;-58
2024/01/23 07:44:46;;;;;;;22.10;3.60;;;6.90;99.90;;;;;;5058119;28;20468;-58
2024/01/23 07:47:13;;;;;;;12.30;2.70;;;6.90;99.90;;;;;;5057646;28;20576;-58
2024/01/23 07:49:41;;;;;;;19.10;3.50;;;6.90;99.90;;;;;;5057569;28;20449;-58
2024/01/23 07:52:08;;;;;;;20.60;3.00;;;6.90;99.90;;;;;;5057691;28;20478;-58
2024/01/23 07:54:34;;;;;;;13.80;3.07;;;6.90;99.90;;;;;;5057507;28;20441;-58
2024/01/23 07:57:01;;;;;;;20.67;4.37;;;6.80;99.90;;;;;;5058688;28;20438;-58
2024/01/23 07:59:28;;;;;;;22.03;3.30;;;6.90;99.90;;;;;;5058669;28;20520;-58
2024/01/23 08:01:54;;;;;;;17.73;3.67;;;6.90;99.90;;;;;;5059280;28;20476;-58
2024/01/23 08:04:21;;;;;;;12.97;2.97;;;6.90;99.90;;;;;;5059719;28;20449;-58
2024/01/23 08:06:49;;;;;;;22.00;4.30;;;6.90;99.90;;;;;;5059280;28;20493;-58
2024/01/23 08:09:17;;;;;;;11.60;3.23;;;6.90;99.90;;;;;;5056875;28;20449;-59
2024/01/23 08:11:43;;;;;;;13.17;3.40;;;6.90;99.90;;;;;;5056026;28;20473;-59
2024/01/23 08:14:10;;;;;;;19.27;3.60;;;6.90;99.90;;;;;;5056137;28;20446;-58
2024/01/23 08:16:37;;;;;;;10.03;2.80;;;6.90;99.90;;;;;;5055913;28;20438;-58
2024/01/23 08:19:04;;;;;;;13.73;3.57;;;6.90;99.90;;;;;;5055989;28;20446;-58
2024/01/23 08:21:31;;;;;;;19.40;2.93;;;6.90;99.90;;;;;;5055790;28;20880;-58
2024/01/23 08:23:59;;;;;;;12.20;3.20;;;6.90;99.90;;;;;;5055955;28;20452;-58
2024/01/23 08:26:25;;;;;;;15.33;3.53;;;6.90;99.90;;;;;;5055847;28;20473;-59
2024/01/23 08:28:52;;;;;;;22.07;3.57;;;7.00;99.90;;;;;;5055575;28;20940;-58
2024/01/23 08:31:19;;;;;;;19.80;3.03;;;7.00;99.90;;;;;;5055799;28;20466;-58
2024/01/23 08:33:45;;;;;;;20.30;3.67;;;7.10;99.90;;;;;;5055641;28;20532;-58
2024/01/23 08:36:13;;;;;;;13.67;3.63;;;7.10;99.90;;;;;;5056239;28;20445;-58
2024/01/23 08:38:41;;;;;;;14.33;2.57;;;7.10;99.90;;;;;;5056443;28;20484;-58
2024/01/23 08:41:10;;;;;;;10.50;3.10;;;7.10;99.90;;;;;;5056942;28;20504;-58
2024/01/23 08:43:36;;;;;;;17.33;2.70;;;7.10;99.90;;;;;;5055787;28;20865;-58
2024/01/23 08:46:03;;;;;;;15.73;3.33;;;7.10;99.90;;;;;;5055037;28;20454;-58
2024/01/23 08:48:30;;;;;;;16.60;3.90;;;7.20;99.90;;;;;;5054700;28;20970;-58
2024/01/23 08:50:57;;;;;;;20.07;3.87;;;7.20;99.90;;;;;;5054820;28;20540;-59
2024/01/23 08:53:23;;;;;;;11.20;2.90;;;7.30;99.90;;;;;;5054483;28;20457;-58
2024/01/23 08:55:50;;;;;;;16.07;3.47;;;7.30;99.90;;;;;;5054615;28;20950;-58
2024/01/23 08:58:18;;;;;;;15.50;3.63;;;7.30;99.90;;;;;;5054871;28;20443;-58
2024/01/23 09:00:45;;;;;;;17.57;3.40;;;7.30;99.90;;;;;;5054747;28;20441;-58
2024/01/23 09:03:12;;;;;;;22.30;3.53;;;7.30;99.90;;;;;;5054670;28;20489;-58
2024/01/23 09:05:39;;;;;;;20.03;4.13;;;7.40;99.90;;;;;;5053992;28;20446;-59
2024/01/23 09:08:06;;;;;;;17.87;4.30;;;7.30;99.90;;;;;;5054660;28;20473;-58
2024/01/23 09:10:33;;;;;;;17.07;5.20;;;7.30;99.90;;;;;;5054625;28;20449;-58
2024/01/23 09:12:59;;;;;;;18.13;4.10;;;7.40;99.90;;;;;;5054511;28;20829;-58
2024/01/23 09:15:27;;;;;;;20.77;4.10;;;7.40;99.90;;;;;;5054462;28;20445;-58
2024/01/23 09:17:54;;;;;;;23.97;4.83;;;7.50;99.90;;;;;;5054205;28;20449;-58
2024/01/23 09:20:21;;;;;;;25.47;4.73;;;7.50;99.90;;;;;;5054057;28;20958;-58
2024/01/23 09:22:49;;;;;;;23.70;3.63;;;7.50;99.90;;;;;;5054355;28;20462;-58
2024/01/23 09:25:16;;;;;;;18.30;3.87;;;7.60;99.90;;;;;;5054415;28;20536;-58
2024/01/23 09:27:42;;;;;;;14.90;4.20;;;7.60;99.90;;;;;;5054267;28;20889;-58
2024/01/23 09:30:10;;;;;;;27.37;4.47;;;7.60;99.90;;;;;;5054264;28;20453;-58
2024/01/23 09:32:38;;;;;;;26.57;4.53;;;7.70;99.90;;;;;;5054096;28;20469;-58
2024/01/23 09:35:06;;;;;;;18.00;4.67;;;7.70;99.90;;;;;;5054128;28;20446;-58
2024/01/23 09:37:33;;;;;;;12.30;4.17;;;7.80;99.90;;;;;;5054128;28;20441;-58
2024/01/23 09:39:59;;;;;;;25.87;4.87;;;7.90;99.90;;;;;;5053708;28;20442;-58
2024/01/23 09:42:26;;;;;;;19.83;4.13;;;7.80;99.90;;;;;;5053795;28;20987;-58
2024/01/23 09:44:55;;;;;;;15.00;4.00;;;7.90;99.90;;;;;;5054063;28;20442;-59
2024/01/23 09:47:23;;;;;;;21.07;5.00;;;7.90;99.90;;;;;;5053953;28;20531;-58
2024/01/23 09:49:52;;;;;;;23.07;4.10;;;8.00;99.90;;;;;;5053650;28;20796;-58
2024/01/23 09:52:21;;;;;;;20.00;4.30;;;8.00;99.90;;;;;;5053402;28;20485;-58
2024/01/23 09:54:48;;;;;;;22.10;5.43;;;8.10;99.90;;;;;;5053782;28;20446;-58
2024/01/23 09:57:14;;;;;;;16.47;3.60;;;8.10;99.90;;;;;;5053428;28;20442;-58
2024/01/23 09:59:41;;;;;;;24.90;3.70;;;8.20;99.90;;;;;;5053745;28;20484;-58
2024/01/23 10:02:10;;;;;;;28.17;4.77;;;8.20;99.90;;;;;;5053278;28;21002;-58
2024/01/23 10:04:36;;;;;;;17.30;4.07;;;8.30;99.90;;;;;;5053576;28;20445;-58
2024/01/23 10:07:07;;;;;;;17.50;4.07;;;8.40;99.90;;;;;;5053200;28;20531;-58
2024/01/23 10:09:35;;;;;;;16.30;3.70;;;8.40;99.90;;;;;;5053660;28;20488;-58
2024/01/23 10:12:02;;;;;;;21.67;4.67;;;8.40;99.90;;;;;;5053489;28;20469;-58
2024/01/23 10:14:28;;;;;;;13.33;3.57;;;8.50;99.90;;;;;;5053351;28;20445;-59
2024/01/23 10:16:55;;;;;;;20.70;3.70;;;8.60;99.90;;;;;;5053131;28;20437;-58
2024/01/23 10:19:22;;;;;;;19.60;4.20;;;8.70;99.90;;;;;;5053395;28;20456;-58
2024/01/23 10:21:48;;;;;;;18.63;3.90;;;8.80;99.90;;;;;;5053345;28;20461;-58
2024/01/23 10:24:16;;;;;;;31.27;4.10;;;8.80;99.90;;;;;;5053338;28;20442;-59
2024/01/23 10:26:46;;;;;;;19.20;4.87;;;8.90;99.90;;;;;;5053321;28;20454;-58
2024/01/23 10:29:13;;;;;;;13.80;3.60;;;9.00;99.90;;;;;;5053300;28;20448;-58
2024/01/23 10:31:42;;;;;;;16.40;4.03;;;9.00;99.90;;;;;;5053216;28;20453;-58
2024/01/23 10:34:12;;;;;;;18.03;4.70;;;8.90;99.90;;;;;;5052929;28;20788;-58
2024/01/23 10:36:38;;;;;;;18.77;4.67;;;9.00;99.90;;;;;;5052893;28;20857;-58
2024/01/23 10:39:05;;;;;;;17.33;4.20;;;9.10;99.90;;;;;;5052988;28;20940;-58
2024/01/23 10:41:34;;;;;;;28.97;4.97;;;9.10;99.90;;;;;;5052917;28;20979;-58
2024/01/23 10:44:03;;;;;;;10.63;3.27;;;9.10;99.90;;;;;;5053424;28;20449;-58
2024/01/23 10:46:31;;;;;;;18.23;4.20;;;9.10;99.90;;;;;;5053494;28;20499;-58
2024/01/23 10:48:58;;;;;;;22.10;3.13;;;9.30;99.90;;;;;;5053316;28;20485;-58
2024/01/23 10:51:31;;;;;;;27.97;4.27;;;9.30;99.90;;;;;;5053082;28;20469;-58
2024/01/23 10:54:06;;;;;;;18.57;3.90;;;9.40;99.90;;;;;;5053269;28;20426;-58
2024/01/23 10:56:42;;;;;;;22.80;4.90;;;9.40;99.90;;;;;;5053258;28;20432;-58
2024/01/23 10:59:16;;;;;;;16.23;4.20;;;9.50;99.90;;;;;;5053251;28;20429;-58
2024/01/23 11:01:45;;;;;;;15.60;3.90;;;9.60;99.90;;;;;;5053094;28;20487;-58
2024/01/23 11:04:11;;;;;;;17.97;3.37;;;9.60;99.90;;;;;;5052824;28;20955;-58
2024/01/23 11:06:48;;;;;;;19.43;4.50;;;9.60;99.90;;;;;;5052785;28;20449;-58
2024/01/23 11:09:19;;;;;;;14.30;3.87;;;9.60;99.90;;;;;;5053043;28;20426;-58
2024/01/23 11:12:00;;;;;;;14.83;3.90;;;9.80;99.90;;;;;;5052938;28;20453;-58
2024/01/23 11:14:31;;;;;;;17.63;3.90;;;10.00;99.70;;;;;;5052693;28;20907;-58
2024/01/23 11:17:02;;;;;;;20.90;4.20;;;10.20;98.70;;;;;;5053035;28;20425;-58
2024/01/23 11:19:29;;;;;;;21.10;4.10;;;10.30;97.90;;;;;;5052992;28;20499;-58
2024/01/23 11:22:02;;;;;;;16.70;5.20;;;10.40;97.80;;;;;;5053023;28;20466;-58
2024/01/23 11:24:42;;;;;;;22.93;4.77;;;10.40;97.40;;;;;;5052928;28;20848;-58
2024/01/23 11:27:20;;;;;;;18.50;4.07;;;10.50;97.90;;;;;;5053142;28;20485;-58
2024/01/23 11:29:47;;;;;;;12.83;2.97;;;10.60;97.40;;;;;;5055929;28;20778;-58
2024/01/23 11:32:19;;;;;;;17.23;4.20;;;10.80;97.50;;;;;;5056506;28;20833;-58
2024/01/23 11:34:46;;;;;;;22.90;3.77;;;11.00;96.20;;;;;;5056496;28;20472;-58
2024/01/23 11:37:35;;;;;;;14.67;4.00;;;10.90;96.30;;;;;;5056435;28;20816;-58
2024/01/23 11:40:04;;;;;;;21.47;4.60;;;10.90;96.70;;;;;;5056370;28;20445;-58
2024/01/23 11:42:38;;;;;;;17.63;4.13;;;10.70;97.20;;;;;;5056345;28;20461;-58
2024/01/23 11:45:23;;;;;;;29.17;4.60;;;10.60;97.60;;;;;;5056289;28;20460;-58
2024/01/23 11:47:55;;;;;;;16.70;3.60;;;10.60;98.10;;;;;;5056333;28;20488;-58
2024/01/23 11:50:23;;;;;;;23.50;4.70;;;10.60;97.80;;;;;;5056333;28;20450;-58
2024/01/23 11:52:51;;;;;;;32.70;4.70;;;10.60;97.80;;;;;;5055784;28;20901;-58
2024/01/23 11:55:19;;;;;;;17.23;4.07;;;10.60;98.30;;;;;;5056061;28;20796;-58
2024/01/23 11:57:48;;;;;;;22.43;4.57;;;10.50;98.20;;;;;;5056304;28;20495;-58
2024/01/23 12:00:16;;;;;;;20.93;3.83;;;10.50;98.40;;;;;;5056084;28;20449;-58
2024/01/23 12:02:43;;;;;;;22.67;4.57;;;10.40;98.70;;;;;;5055690;28;20841;-58
2024/01/23 12:05:10;;;;;;;11.50;3.63;;;10.40;98.70;;;;;;5055970;28;20442;-58
2024/01/23 12:07:38;;;;;;;19.47;5.43;;;10.40;99.10;;;;;;5055942;28;20828;-58
2024/01/23 12:10:06;;;;;;;17.63;4.73;;;10.50;99.20;;;;;;5055606;28;20966;-58
2024/01/23 12:12:33;;;;;;;19.03;4.80;;;10.40;99.00;;;;;;5055772;28;20462;-58
2024/01/23 12:15:01;;;;;;;17.93;5.03;;;10.40;99.20;;;;;;5055715;28;20445;-58
2024/01/23 12:17:27;;;;;;;26.80;4.50;;;10.30;99.40;;;;;;5055809;28;20446;-58
2024/01/23 12:19:54;;;;;;;23.87;4.43;;;10.40;99.40;;;;;;5055677;28;20446;-58
2024/01/23 12:22:21;;;;;;;29.53;5.17;;;10.40;99.60;;;;;;5055579;28;20466;-58
2024/01/23 12:24:48;;;;;;;21.13;4.50;;;10.40;99.60;;;;;;5055535;28;20442;-58
2024/01/23 12:27:16;;;;;;;19.80;4.47;;;10.50;99.70;;;;;;5055399;28;20448;-58
2024/01/23 12:29:42;;;;;;;20.63;4.30;;;10.50;99.80;;;;;;5055468;28;20445;-58
2024/01/23 12:32:12;;;;;;;18.37;4.50;;;10.50;99.90;;;;;;5054984;28;20465;-58
2024/01/23 12:34:40;;;;;;;18.37;4.23;;;10.40;99.90;;;;;;5055379;28;20811;-58
2024/01/23 12:37:06;;;;;;;17.07;4.33;;;10.30;99.90;;;;;;5055002;28;20858;-58
2024/01/23 12:39:34;;;;;;;18.43;3.77;;;10.30;99.90;;;;;;5055121;28;20449;-58
2024/01/23 12:42:02;;;;;;;22.60;4.10;;;10.30;99.90;;;;;;5054402;28;20473;-58
2024/01/23 12:44:29;;;;;;;18.73;4.70;;;10.40;99.90;;;;;;5055153;28;20441;-58
2024/01/23 12:46:56;;;;;;;23.27;4.63;;;10.50;99.90;;;;;;5055035;28;20499;-58